Time;durP1;ratioP1;P1;durP2;ratioP2;P2;SDS_P1;SDS_P2;PMS_P1;PMS_P2;Temp;Humidity;BMP_temperature;BMP_pressure;BME280_temperature;BME280_humidity;BME280_pressure;Samples;Min_cycle;Max_cycle;Signal;HPM_P1;HPM_P2
2022/07/25 00:01:59;;;;;;;6.90;2.90;;;;;;;13.84;86.40;100096.22;105220;1271;59639;-73
2022/07/25 00:04:48;;;;;;;6.90;2.90;;;;;;;13.81;86.32;100091.82;104980;1271;59663;-71
2022/07/25 00:07:37;;;;;;;7.20;3.40;;;;;;;13.79;86.42;100093.10;105145;1272;73252;-71
2022/07/25 00:10:25;;;;;;;7.90;2.80;;;;;;;13.76;86.49;100093.38;105111;1271;68403;-71
2022/07/25 00:13:14;;;;;;;8.30;3.30;;;;;;;13.72;86.74;100091.92;105183;1271;74157;-71
2022/07/25 00:16:02;;;;;;;7.50;2.90;;;;;;;13.69;86.37;100091.67;105034;1271;61280;-71
2022/07/25 00:18:50;;;;;;;8.20;3.20;;;;;;;13.66;85.83;100093.50;104900;1271;62051;-73
2022/07/25 00:21:38;;;;;;;7.00;3.30;;;;;;;13.64;85.64;100092.60;104952;1271;72160;-73
2022/07/25 00:24:26;;;;;;;8.10;3.30;;;;;;;13.62;85.62;100085.63;105142;1271;69811;-73
2022/07/25 00:27:14;;;;;;;7.70;3.00;;;;;;;13.61;85.53;100078.63;105068;1271;72928;-73
2022/07/25 00:30:03;;;;;;;6.90;2.60;;;;;;;13.59;85.12;100082.40;105009;1271;59685;-72
2022/07/25 00:32:51;;;;;;;7.30;3.10;;;;;;;13.56;85.13;100085.14;104955;1271;62182;-71
2022/07/25 00:35:39;;;;;;;6.90;3.00;;;;;;;13.52;85.24;100085.67;104925;1271;73615;-73
2022/07/25 00:38:27;;;;;;;7.50;2.80;;;;;;;13.46;85.35;100083.58;105003;1271;69550;-73
2022/07/25 00:41:15;;;;;;;7.00;3.00;;;;;;;13.40;85.44;100081.24;105009;1272;73769;-74
2022/07/25 00:44:04;;;;;;;7.00;2.80;;;;;;;13.35;86.20;100080.06;105043;1271;60248;-74
2022/07/25 00:46:54;;;;;;;7.00;2.90;;;;;;;13.33;86.49;100081.11;105037;1271;60490;-73
2022/07/25 00:49:42;;;;;;;6.70;2.80;;;;;;;13.31;86.05;100076.62;104956;1271;73674;-72
2022/07/25 00:52:31;;;;;;;6.90;2.90;;;;;;;13.31;85.59;100077.75;105010;1271;67346;-72
2022/07/25 00:55:20;;;;;;;7.30;3.10;;;;;;;13.29;85.89;100073.63;105056;1271;70840;-71
2022/07/25 00:58:08;;;;;;;8.20;3.10;;;;;;;13.25;86.05;100071.13;104948;1271;59637;-72
2022/07/25 01:00:57;;;;;;;7.00;3.00;;;;;;;13.19;85.90;100070.23;104947;1271;60984;-73
2022/07/25 01:03:45;;;;;;;8.50;3.10;;;;;;;13.12;86.00;100068.35;105017;1271;72708;-73
2022/07/25 01:06:34;;;;;;;8.40;3.40;;;;;;;13.06;85.96;100068.88;105171;1271;69057;-73
2022/07/25 01:09:22;;;;;;;9.00;3.20;;;;;;;13.03;85.86;100068.09;105011;1271;73759;-73
2022/07/25 01:12:10;;;;;;;7.00;3.10;;;;;;;13.00;85.70;100071.76;105150;1271;61253;-72
2022/07/25 01:14:58;;;;;;;8.30;3.00;;;;;;;12.98;85.58;100069.05;105040;1271;60485;-73
2022/07/25 01:17:48;;;;;;;8.00;3.30;;;;;;;12.95;85.32;100064.80;105068;1271;71965;-71
2022/07/25 01:20:35;;;;;;;8.00;3.20;;;;;;;12.94;84.93;100066.14;105158;1271;68046;-72
2022/07/25 01:23:24;;;;;;;7.10;3.10;;;;;;;12.95;85.30;100062.01;105037;1271;74693;-72
2022/07/25 01:26:12;;;;;;;7.20;3.10;;;;;;;12.93;84.95;100063.37;105053;1271;59685;-72
2022/07/25 01:29:00;;;;;;;6.80;2.90;;;;;;;12.92;84.85;100057.75;105214;1271;60311;-72
2022/07/25 01:31:48;;;;;;;7.10;3.20;;;;;;;12.92;84.32;100050.35;104895;1271;71385;-74
2022/07/25 01:34:36;;;;;;;7.90;3.10;;;;;;;12.91;84.65;100048.98;104905;1271;68577;-72
2022/07/25 01:37:24;;;;;;;8.60;2.90;;;;;;;12.91;84.78;100042.95;105144;1271;73178;-71
2022/07/25 01:40:14;;;;;;;7.80;2.90;;;;;;;12.91;84.60;100044.86;104986;1272;59811;-74
2022/07/25 01:43:02;;;;;;;6.60;3.00;;;;;;;12.92;84.58;100044.81;105234;1271;59647;-73
2022/07/25 01:45:50;;;;;;;6.60;2.60;;;;;;;12.93;84.13;100036.91;105020;1271;74716;-72
2022/07/25 01:48:39;;;;;;;7.50;3.00;;;;;;;12.93;83.69;100033.86;105169;1271;69417;-72
2022/07/25 01:51:27;;;;;;;6.90;2.80;;;;;;;12.97;83.40;100036.88;104887;1273;73600;-72
2022/07/25 01:54:15;;;;;;;7.50;3.00;;;;;;;12.99;83.76;100036.70;105278;1271;59659;-72
2022/07/25 01:57:04;;;;;;;7.60;3.40;;;;;;;13.01;83.72;100038.68;105238;1271;59627;-72
2022/07/25 01:59:52;;;;;;;7.50;2.80;;;;;;;13.03;84.09;100044.20;105035;1271;73640;-74
2022/07/25 02:02:43;;;;;;;7.10;3.30;;;;;;;13.06;84.35;100044.86;104877;1271;68404;-72
2022/07/25 02:05:31;;;;;;;7.00;2.80;;;;;;;13.10;85.02;100048.39;104983;1271;72889;-72
2022/07/25 02:08:19;;;;;;;7.50;3.20;;;;;;;13.16;85.21;100047.52;105053;1271;59707;-72
2022/07/25 02:11:08;;;;;;;6.90;2.90;;;;;;;13.21;85.70;100046.92;105046;1271;61995;-73
2022/07/25 02:13:56;;;;;;;7.00;3.00;;;;;;;13.28;86.82;100039.35;105130;1271;73365;-72
2022/07/25 02:16:44;;;;;;;7.40;3.10;;;;;;;13.37;87.80;100037.65;104924;1274;68577;-72
2022/07/25 02:19:33;;;;;;;7.00;3.00;;;;;;;13.44;87.85;100041.79;104967;1271;72620;-72
2022/07/25 02:22:21;;;;;;;8.60;3.20;;;;;;;13.49;87.98;100046.73;105036;1271;59637;-72
2022/07/25 02:25:10;;;;;;;7.30;3.00;;;;;;;13.54;88.05;100042.94;104970;1273;62101;-64
2022/07/25 02:27:58;;;;;;;9.30;3.60;;;;;;;13.52;88.27;100035.45;104914;1273;74261;-70
2022/07/25 02:30:46;;;;;;;7.60;3.50;;;;;;;13.60;88.51;100045.16;104955;1271;68540;-72
2022/07/25 02:33:38;;;;;;;8.40;3.60;;;;;;;13.64;88.50;100042.52;105061;1273;72967;-73
2022/07/25 02:36:26;;;;;;;7.40;3.20;;;;;;;13.67;88.88;100041.20;104885;1273;59784;-72
2022/07/25 02:39:15;;;;;;;10.00;3.40;;;;;;;13.69;88.99;100039.20;105021;1271;60496;-72
2022/07/25 02:42:03;;;;;;;7.40;3.30;;;;;;;13.70;89.06;100035.91;104856;1273;73288;-72
2022/07/25 02:44:51;;;;;;;8.70;3.40;;;;;;;13.71;89.61;100026.77;105012;1271;68362;-68
2022/07/25 02:47:39;;;;;;;9.40;4.50;;;;;;;13.70;89.80;100031.47;105089;1271;73385;-70
2022/07/25 02:50:28;;;;;;;9.30;4.50;;;;;;;13.67;89.56;100031.41;104954;1271;59680;-73
2022/07/25 02:53:18;;;;;;;9.80;4.70;;;;;;;13.62;89.39;100030.75;104960;1271;61051;-73
2022/07/25 02:56:26;;;;;;;11.30;4.60;;;;;;;13.59;89.31;100030.02;105208;1271;74753;-74
2022/07/25 02:59:16;;;;;;;9.30;4.50;;;;;;;13.55;89.48;100027.09;105042;1271;68545;-73
2022/07/25 03:02:04;;;;;;;9.30;4.10;;;;;;;13.56;89.72;100031.17;105262;1271;73445;-73
2022/07/25 03:04:52;;;;;;;8.50;3.80;;;;;;;13.57;89.95;100031.40;104993;1271;60260;-73
2022/07/25 03:07:43;;;;;;;8.30;4.10;;;;;;;13.59;90.16;100032.13;104948;1274;59688;-71
2022/07/25 03:10:33;;;;;;;8.60;4.20;;;;;;;13.62;90.41;100030.90;105060;1273;75465;-74
2022/07/25 03:13:21;;;;;;;9.90;4.00;;;;;;;13.66;90.70;100035.58;104959;1271;68617;-71
2022/07/25 03:16:09;;;;;;;8.70;3.70;;;;;;;13.69;90.79;100037.52;105098;1271;71705;-72
2022/07/25 03:18:57;;;;;;;9.00;4.20;;;;;;;13.70;91.10;100040.91;105046;1271;59673;-72
2022/07/25 03:21:45;;;;;;;8.50;4.00;;;;;;;13.72;91.34;100037.57;104990;1271;60407;-73
2022/07/25 03:24:34;;;;;;;10.40;4.50;;;;;;;13.74;91.58;100035.06;104848;1273;73767;-72
2022/07/25 03:27:22;;;;;;;9.40;4.10;;;;;;;13.77;91.58;100030.52;105013;1271;69607;-71
2022/07/25 03:30:11;;;;;;;9.10;3.90;;;;;;;13.80;91.98;100035.39;104839;1273;74306;-73
2022/07/25 03:32:59;;;;;;;7.60;4.10;;;;;;;13.85;92.27;100043.85;105020;1270;59867;-69
2022/07/25 03:35:47;;;;;;;11.60;3.90;;;;;;;13.93;92.14;100049.71;104976;1271;60606;-72
2022/07/25 03:38:35;;;;;;;8.40;3.50;;;;;;;14.05;91.81;100047.70;104964;1271;75280;-71
2022/07/25 03:41:23;;;;;;;7.30;3.40;;;;;;;14.18;91.48;100045.80;105022;1271;69497;-73
2022/07/25 03:44:14;;;;;;;7.50;3.40;;;;;;;14.32;91.14;100043.09;105155;1271;74601;-73
2022/07/25 03:47:04;;;;;;;8.60;3.60;;;;;;;14.45;90.22;100036.86;105201;1271;59659;-71
2022/07/25 03:49:52;;;;;;;8.00;3.50;;;;;;;14.57;89.78;100034.69;105264;1271;61130;-71
2022/07/25 03:52:40;;;;;;;9.00;3.90;;;;;;;14.68;89.29;100032.09;104914;1271;74096;-71
2022/07/25 03:55:28;;;;;;;7.90;3.80;;;;;;;14.79;88.77;100031.95;105289;1271;68158;-72
2022/07/25 03:58:16;;;;;;;8.00;3.60;;;;;;;14.89;88.18;100026.95;104876;1271;74772;-72
2022/07/25 04:01:04;;;;;;;8.70;3.80;;;;;;;14.99;87.21;100025.72;105068;1271;60263;-72
2022/07/25 04:03:58;;;;;;;8.60;3.80;;;;;;;15.03;86.82;100026.24;104950;1271;60490;-75
2022/07/25 04:06:46;;;;;;;8.70;3.20;;;;;;;15.08;86.71;100020.55;105150;1271;73264;-75
2022/07/25 04:09:34;;;;;;;9.00;3.80;;;;;;;15.17;86.11;100025.43;105103;1271;67934;-74
2022/07/25 04:12:22;;;;;;;8.70;3.50;;;;;;;15.21;85.89;100020.85;105121;1269;71721;-75
2022/07/25 04:15:11;;;;;;;9.00;4.00;;;;;;;15.29;85.78;100015.29;105519;1271;60911;-72
2022/07/25 04:17:59;;;;;;;7.90;3.50;;;;;;;15.36;85.13;100012.27;105352;1271;59566;-75
2022/07/25 04:20:48;;;;;;;7.80;3.60;;;;;;;15.41;85.14;100010.31;105051;1271;74720;-74
2022/07/25 04:23:36;;;;;;;8.10;3.60;;;;;;;15.43;84.86;100010.33;105287;1271;66868;-74
2022/07/25 04:26:24;;;;;;;8.30;3.40;;;;;;;15.55;84.71;100016.50;105515;1271;72973;-75
2022/07/25 04:29:13;;;;;;;8.20;3.60;;;;;;;15.63;84.57;100020.29;105068;1273;59650;-72
2022/07/25 04:32:00;;;;;;;8.00;3.80;;;;;;;15.71;83.75;100025.08;104970;1271;61050;-74
2022/07/25 04:34:51;;;;;;;8.10;3.30;;;;;;;15.75;83.65;100019.29;105102;1271;72018;-73
2022/07/25 04:37:39;;;;;;;9.90;3.50;;;;;;;15.81;83.09;100017.15;105315;1271;68062;-75
2022/07/25 04:40:27;;;;;;;8.00;3.90;;;;;;;15.86;82.70;100014.31;105315;1271;72922;-75
2022/07/25 04:43:15;;;;;;;9.90;3.80;;;;;;;15.89;82.60;100007.02;105123;1271;59665;-72
2022/07/25 04:46:03;;;;;;;7.90;3.70;;;;;;;15.91;82.67;100002.57;105212;1273;61008;-74
2022/07/25 04:48:51;;;;;;;13.20;3.80;;;;;;;15.97;82.54;100006.02;104894;1271;73895;-72
2022/07/25 04:51:41;;;;;;;10.00;3.80;;;;;;;16.04;82.42;100006.29;105035;1271;68103;-73
2022/07/25 04:54:29;;;;;;;11.70;4.00;;;;;;;16.12;82.11;100004.34;105014;1271;74435;-74
2022/07/25 04:57:18;;;;;;;10.10;3.60;;;;;;;16.24;81.64;99999.23;105343;1271;59754;-72
2022/07/25 05:00:09;;;;;;;8.50;3.40;;;;;;;16.37;81.27;99992.69;105093;1271;62021;-73
2022/07/25 05:02:58;;;;;;;11.60;3.80;;;;;;;16.53;80.58;99989.96;104857;1271;72972;-72
2022/07/25 05:05:45;;;;;;;8.90;3.60;;;;;;;16.81;79.49;99984.73;105154;1271;68865;-73
2022/07/25 05:08:34;;;;;;;9.00;3.40;;;;;;;17.06;78.24;99977.27;105071;1271;72599;-70
2022/07/25 05:11:22;;;;;;;7.90;3.10;;;;;;;17.31;77.25;99973.56;105488;1271;60214;-71
2022/07/25 05:14:09;;;;;;;8.70;3.20;;;;;;;17.53;76.11;99976.15;106062;1271;62014;-73
2022/07/25 05:16:58;;;;;;;8.70;3.10;;;;;;;17.85;75.46;99973.82;105947;1271;75129;-70
2022/07/25 05:19:46;;;;;;;10.10;3.20;;;;;;;18.30;73.20;99979.30;106077;1271;68503;-70
2022/07/25 05:22:34;;;;;;;10.40;3.50;;;;;;;18.83;71.75;99976.07;105726;1273;71757;-71
2022/07/25 05:25:22;;;;;;;9.30;3.20;;;;;;;19.61;68.75;99978.02;105022;1271;59667;-73
2022/07/25 05:28:10;;;;;;;9.00;3.00;;;;;;;20.23;65.71;99971.45;105439;1271;60019;-74
2022/07/25 05:30:59;;;;;;;8.70;3.00;;;;;;;20.23;65.49;99970.41;105069;1271;72549;-73
2022/07/25 05:33:46;;;;;;;9.30;3.00;;;;;;;20.43;64.47;99969.41;105114;1271;66583;-73
2022/07/25 05:36:37;;;;;;;8.20;3.00;;;;;;;20.23;64.88;99968.29;105176;1271;71762;-76
2022/07/25 05:39:25;;;;;;;10.30;2.70;;;;;;;20.16;64.88;99962.58;104875;1271;59680;-74
2022/07/25 05:42:13;;;;;;;7.20;2.80;;;;;;;20.15;65.03;99959.27;104996;1271;61666;-73
2022/07/25 05:45:02;;;;;;;8.60;2.90;;;;;;;20.72;63.29;99956.01;105082;1271;71744;-74
2022/07/25 05:47:50;;;;;;;9.30;2.70;;;;;;;21.50;62.01;99950.20;105391;1271;68110;-73
2022/07/25 05:50:39;;;;;;;8.70;2.60;;;;;;;22.24;59.11;99949.34;105323;1271;71474;-72
2022/07/25 05:53:27;;;;;;;10.80;2.90;;;;;;;22.40;57.99;99944.59;105256;1271;59637;-74
2022/07/25 05:56:15;;;;;;;9.30;3.00;;;;;;;22.97;56.13;99941.61;105154;1271;59712;-72
2022/07/25 05:59:04;;;;;;;9.40;3.10;;;;;;;23.76;53.78;99937.92;105022;1271;73248;-72
2022/07/25 06:01:52;;;;;;;11.70;3.00;;;;;;;24.59;51.67;99936.35;105158;1271;68044;-77
2022/07/25 06:04:41;;;;;;;9.00;2.70;;;;;;;25.37;49.25;99927.15;105384;1271;74407;-75
2022/07/25 06:07:28;;;;;;;8.10;2.70;;;;;;;26.12;48.37;99922.44;105100;1271;59870;-76
2022/07/25 06:10:17;;;;;;;9.10;2.50;;;;;;;26.95;45.56;99915.55;105443;1271;61011;-76
2022/07/25 06:13:05;;;;;;;8.80;2.60;;;;;;;27.36;43.46;99915.56;105119;1273;73279;-80
2022/07/25 06:15:54;;;;;;;10.30;5.70;;;;;;;27.61;43.28;99917.19;105267;1273;68051;-77
2022/07/25 06:18:42;;;;;;;7.20;2.20;;;;;;;28.09;43.20;99917.02;105151;1271;74318;-76
2022/07/25 06:21:31;;;;;;;9.30;2.20;;;;;;;28.64;41.01;99916.61;105066;1271;59520;-76
2022/07/25 06:24:18;;;;;;;8.00;2.20;;;;;;;28.61;41.20;99914.82;105257;1271;60622;-75
2022/07/25 06:27:07;;;;;;;9.90;2.40;;;;;;;28.91;39.79;99905.30;105080;1271;73204;-78
2022/07/25 06:29:55;;;;;;;7.90;2.80;;;;;;;29.54;39.84;99906.39;105119;1271;68720;-79
2022/07/25 06:32:43;;;;;;;6.00;1.80;;;;;;;29.67;37.97;99901.52;105090;1271;72950;-76
2022/07/25 06:35:31;;;;;;;6.80;1.80;;;;;;;29.38;37.82;99904.41;105084;1271;59852;-77
2022/07/25 06:38:19;;;;;;;6.10;2.10;;;;;;;29.03;38.68;99903.02;105214;1271;60849;-75
2022/07/25 06:41:07;;;;;;;7.40;2.30;;;;;;;29.49;38.37;99897.36;105103;1271;73203;-75
2022/07/25 06:43:55;;;;;;;7.70;2.00;;;;;;;30.49;37.30;99890.12;105234;1271;68043;-76
2022/07/25 06:46:43;;;;;;;6.80;2.20;;;;;;;31.40;35.70;99880.07;105138;1271;74486;-76
2022/07/25 06:49:31;;;;;;;7.30;1.90;;;;;;;31.82;33.67;99875.40;105212;1271;59656;-76
2022/07/25 06:52:19;;;;;;;8.90;2.10;;;;;;;31.91;33.74;99872.42;105200;1271;59709;-77
2022/07/25 06:55:09;;;;;;;7.40;1.80;;;;;;;31.92;32.67;99867.70;105430;1271;73312;-77
2022/07/25 06:57:57;;;;;;;6.00;1.80;;;;;;;31.89;32.88;99859.80;105226;1271;66933;-79
2022/07/25 07:00:44;;;;;;;9.10;1.70;;;;;;;31.93;32.94;99862.05;105302;1271;71955;-78
2022/07/25 07:03:36;;;;;;;6.60;1.60;;;;;;;32.28;32.32;99864.39;105290;1271;59728;-78
2022/07/25 07:06:25;;;;;;;6.60;2.00;;;;;;;32.90;31.38;99868.07;105383;1271;60474;-78
2022/07/25 07:09:12;;;;;;;8.10;3.80;;;;;;;32.80;30.67;99867.94;105461;1271;74336;-79
2022/07/25 07:12:01;;;;;;;8.80;4.10;;;;;;;32.68;31.54;99868.13;105341;1271;66527;-77
2022/07/25 07:14:49;;;;;;;6.90;1.90;;;;;;;32.89;31.04;99864.61;105148;1271;70370;-78
2022/07/25 07:17:37;;;;;;;7.10;2.10;;;;;;;33.17;30.13;99856.84;105457;1271;59701;-76
2022/07/25 07:20:25;;;;;;;6.30;1.70;;;;;;;33.04;29.96;99855.48;105417;1270;60541;-76
2022/07/25 07:23:14;;;;;;;8.70;1.70;;;;;;;33.07;29.98;99853.94;105241;1271;72007;-76
2022/07/25 07:26:05;;;;;;;7.10;1.60;;;;;;;33.59;29.72;99848.89;105109;1271;68477;-78
2022/07/25 07:28:55;;;;;;;9.40;2.00;;;;;;;34.08;28.74;99849.85;105408;1271;71996;-77
2022/07/25 07:31:43;;;;;;;7.40;1.70;;;;;;;34.46;28.14;99844.02;105227;1271;60015;-76
2022/07/25 07:34:31;;;;;;;6.00;1.70;;;;;;;34.48;28.08;99836.45;105281;1271;59689;-76
2022/07/25 07:37:20;;;;;;;6.60;1.90;;;;;;;34.33;27.83;99839.95;105285;1271;73410;-78
2022/07/25 07:40:09;;;;;;;6.60;1.50;;;;;;;34.18;28.51;99838.77;105344;1271;69200;-76
2022/07/25 07:43:05;;;;;;;6.20;1.80;;;;;;;33.82;28.63;99837.50;105284;1271;70865;-79
2022/07/25 07:45:54;;;;;;;8.50;1.90;;;;;;;33.64;28.30;99830.27;105221;1271;59688;-77
2022/07/25 07:48:42;;;;;;;6.90;1.80;;;;;;;33.92;27.27;99829.31;105445;1271;59606;-78
2022/07/25 07:51:31;;;;;;;6.30;1.70;;;;;;;34.30;26.62;99821.29;105682;1271;73290;-78
2022/07/25 07:57:25;;;;;;;7.10;1.80;;;;;;;34.51;26.05;99822.67;105356;1271;73419;-77
2022/07/25 08:00:15;;;;;;;8.80;1.70;;;;;;;34.69;25.74;99825.67;105362;1271;60048;-78
2022/07/25 08:03:07;;;;;;;6.30;2.10;;;;;;;34.75;25.44;99823.09;105291;1271;60538;-75
2022/07/25 08:05:56;;;;;;;8.00;1.70;;;;;;;34.91;25.86;99819.59;105260;1271;71922;-76
2022/07/25 08:08:44;;;;;;;6.50;1.80;;;;;;;35.35;24.96;99818.45;105126;1271;68107;-74
2022/07/25 08:11:33;;;;;;;11.20;5.40;;;;;;;35.31;24.94;99813.51;105295;1271;74556;-75
2022/07/25 08:14:21;;;;;;;6.70;2.20;;;;;;;35.47;24.92;99811.73;105513;1271;59779;-74
2022/07/25 08:17:08;;;;;;;8.80;2.00;;;;;;;35.05;24.74;99813.77;105394;1271;59787;-78
2022/07/25 08:19:59;;;;;;;7.20;2.00;;;;;;;34.87;24.88;99810.98;105743;1273;73896;-76
2022/07/25 08:23:09;;;;;;;6.40;1.90;;;;;;;34.90;25.21;99810.69;105711;1271;67814;-76
2022/07/25 08:25:59;;;;;;;5.70;1.90;;;;;;;34.91;25.48;99809.46;105286;1271;73464;-77
2022/07/25 08:28:47;;;;;;;8.40;1.90;;;;;;;35.04;25.18;99811.95;105079;1271;59689;-76
2022/07/25 08:31:55;;;;;;;7.50;2.20;;;;;;;34.95;24.45;99812.80;105224;1271;59528;-76
2022/07/25 08:34:43;;;;;;;7.00;2.50;;;;;;;35.36;24.77;99814.35;105424;1271;72020;-79
2022/07/25 08:37:31;;;;;;;8.30;2.50;;;;;;;36.08;24.33;99814.88;107214;1271;66842;-77
2022/07/25 08:40:23;;;;;;;7.00;2.80;;;;;;;36.29;22.49;99812.86;107099;1271;71522;-74
2022/07/25 08:43:14;;;;;;;6.80;2.30;;;;;;;36.72;22.70;99813.01;106822;1271;59326;-75
2022/07/25 08:46:04;;;;;;;6.20;2.20;;;;;;;36.40;21.60;99808.23;105936;1271;60116;-74
2022/07/25 08:48:53;;;;;;;6.50;2.10;;;;;;;36.28;22.16;99804.13;105739;1271;73115;-75
2022/07/25 08:51:41;;;;;;;7.00;2.50;;;;;;;36.43;22.26;99805.16;105322;1271;68942;-76
2022/07/25 08:54:30;;;;;;;11.70;3.20;;;;;;;36.15;22.86;99802.21;105118;1271;72601;-75
2022/07/25 08:57:18;;;;;;;15.00;4.10;;;;;;;36.07;23.02;99802.61;104995;1273;59679;-77
2022/07/25 09:00:07;;;;;;;12.50;4.30;;;;;;;36.50;23.31;99794.58;105189;1271;60514;-75
2022/07/25 09:03:02;;;;;;;13.00;3.90;;;;;;;37.00;22.08;99790.02;105039;1271;73107;-76
2022/07/25 09:05:51;;;;;;;9.70;2.60;;;;;;;36.89;22.06;99790.24;105234;1271;69982;-75
2022/07/25 09:08:59;;;;;;;8.30;2.40;;;;;;;36.78;22.10;99794.84;105071;1271;73421;-74
2022/07/25 09:11:48;;;;;;;5.70;2.20;;;;;;;36.80;22.23;99788.59;105652;1271;59654;-73
2022/07/25 09:14:42;;;;;;;6.90;2.20;;;;;;;37.11;21.69;99787.71;105066;1271;60721;-76
2022/07/25 09:17:30;;;;;;;9.10;2.20;;;;;;;38.07;20.97;99785.66;105030;1271;73334;-77
2022/07/25 09:20:20;;;;;;;7.40;2.40;;;;;;;38.61;20.59;99785.36;105055;1271;66771;-75
2022/07/25 09:23:35;;;;;;;7.40;2.00;;;;;;;38.58;20.62;99782.71;105273;1271;72858;-77
2022/07/25 09:26:24;;;;;;;8.20;2.30;;;;;;;38.35;20.55;99785.25;104936;1272;60072;-73
2022/07/25 09:29:29;;;;;;;7.50;2.10;;;;;;;38.41;21.11;99775.55;105176;1271;62059;-74
2022/07/25 09:32:20;;;;;;;7.00;2.20;;;;;;;38.83;20.51;99774.60;105095;1271;72862;-74
2022/07/25 09:35:08;;;;;;;6.00;2.40;;;;;;;38.73;20.15;99772.95;105098;1271;66809;-76
2022/07/25 09:38:14;;;;;;;6.80;2.10;;;;;;;38.53;20.26;99768.84;105040;1271;73615;-76
2022/07/25 09:41:04;;;;;;;6.20;2.30;;;;;;;38.54;20.11;99769.04;105285;1271;59755;-76
2022/07/25 09:43:52;;;;;;;7.10;2.20;;;;;;;38.07;20.35;99769.00;104983;1271;60386;-75
2022/07/25 09:46:40;;;;;;;7.10;2.20;;;;;;;37.93;20.81;99769.42;104944;1271;73305;-76
2022/07/25 09:49:47;;;;;;;6.90;2.50;;;;;;;37.85;20.72;99769.52;105301;1271;68164;-75
2022/07/25 09:52:36;;;;;;;7.20;2.40;;;;;;;37.36;21.00;99765.73;105406;1271;74382;-76
2022/07/25 09:55:24;;;;;;;6.90;2.50;;;;;;;37.45;21.27;99759.39;105070;1271;59958;-76
2022/07/25 09:58:12;;;;;;;6.30;2.30;;;;;;;37.53;21.15;99754.46;105098;1271;60489;-75
2022/07/25 10:01:05;;;;;;;6.20;2.10;;;;;;;37.29;21.51;99749.04;105301;1271;74107;-76
2022/07/25 10:04:18;;;;;;;7.10;2.30;;;;;;;36.96;21.96;99746.23;105170;1273;68034;-75
2022/07/25 10:07:11;;;;;;;6.50;2.30;;;;;;;36.83;22.16;99739.77;105332;1271;72882;-76
2022/07/25 10:09:59;;;;;;;6.60;2.10;;;;;;;36.95;22.37;99740.70;104874;1273;59654;-75
2022/07/25 10:13:16;;;;;;;7.40;2.30;;;;;;;36.95;21.92;99740.64;105120;1271;60630;-74
2022/07/25 10:16:26;;;;;;;7.30;2.50;;;;;;;37.02;22.41;99734.36;105126;1271;73383;-74
2022/07/25 10:19:14;;;;;;;6.50;2.60;;;;;;;37.19;22.01;99736.11;104927;1273;69652;-73
2022/07/25 10:22:02;;;;;;;6.60;2.60;;;;;;;37.21;22.04;99737.90;105135;1271;71561;-76
2022/07/25 10:24:49;;;;;;;7.20;2.60;;;;;;;37.11;22.27;99736.69;105096;1271;59653;-74
2022/07/25 10:27:57;;;;;;;7.80;2.50;;;;;;;37.25;22.32;99724.98;105068;1271;60285;-75
2022/07/25 10:30:44;;;;;;;9.10;2.80;;;;;;;37.46;22.33;99724.16;104971;1273;74042;-77
2022/07/25 10:33:41;;;;;;;7.80;2.60;;;;;;;37.57;21.98;99714.05;105391;1273;66782;-76
2022/07/25 10:36:48;;;;;;;7.60;2.50;;;;;;;37.41;21.69;99722.62;105117;1271;71619;-74
2022/07/25 10:39:43;;;;;;;6.60;2.40;;;;;;;37.06;22.01;99714.92;105052;1271;59658;-74
2022/07/25 10:42:33;;;;;;;8.30;2.80;;;;;;;36.66;22.52;99712.81;105134;1271;59557;-73
2022/07/25 10:45:25;;;;;;;8.30;2.50;;;;;;;36.81;22.55;99707.70;105364;1272;73102;-77
2022/07/25 10:48:22;;;;;;;6.90;2.80;;;;;;;37.01;22.00;99711.04;105075;1272;68578;-77
2022/07/25 10:51:12;;;;;;;6.90;2.60;;;;;;;37.11;21.74;99717.90;105079;1271;72569;-76
2022/07/25 10:54:13;;;;;;;7.30;2.70;;;;;;;37.32;21.27;99709.52;105053;1271;59650;-75
2022/07/25 10:57:04;;;;;;;8.60;2.90;;;;;;;37.43;21.31;99702.77;105154;1271;60497;-76
2022/07/25 10:59:52;;;;;;;7.00;2.60;;;;;;;37.77;21.81;99692.11;105033;1274;73272;-74
2022/07/25 11:02:40;;;;;;;7.80;2.80;;;;;;;37.95;21.04;99698.45;105025;1271;69991;-76
2022/07/25 11:05:28;;;;;;;6.70;2.60;;;;;;;38.03;21.38;99691.29;105384;1271;72676;-74
2022/07/25 11:08:16;;;;;;;7.20;2.60;;;;;;;38.23;20.90;99690.17;105147;1271;59638;-74
2022/07/25 11:11:10;;;;;;;8.50;2.80;;;;;;;38.51;20.56;99686.23;105172;1271;60570;-74
2022/07/25 11:13:58;;;;;;;7.20;2.60;;;;;;;38.45;20.48;99680.71;105038;1271;73341;-75
2022/07/25 11:16:49;;;;;;;9.30;2.80;;;;;;;38.37;20.54;99674.02;105361;1271;68059;-77
2022/07/25 11:19:36;;;;;;;10.00;4.50;;;;;;;38.16;21.10;99663.98;105043;1271;72775;-76
2022/07/25 11:22:25;;;;;;;8.30;2.70;;;;;;;37.94;21.27;99665.66;105117;1271;59958;-76
2022/07/25 11:25:13;;;;;;;9.00;2.60;;;;;;;37.54;21.69;99663.82;105054;1271;60689;-75
2022/07/25 11:28:02;;;;;;;8.60;2.70;;;;;;;37.01;22.34;99658.30;105303;1271;73291;-73
2022/07/25 11:30:50;;;;;;;7.70;2.80;;;;;;;36.56;23.27;99655.80;105252;1272;68198;-75
2022/07/25 11:33:40;;;;;;;7.90;2.90;;;;;;;35.91;23.02;99660.29;105303;1271;74913;-73
2022/07/25 11:36:29;;;;;;;7.70;3.10;;;;;;;35.40;23.97;99650.70;104958;1273;59657;-74
2022/07/25 11:39:17;;;;;;;8.00;2.80;;;;;;;34.99;24.78;99641.89;105109;1271;59592;-73
2022/07/25 11:42:18;;;;;;;8.60;3.30;;;;;;;34.50;25.35;99631.52;105224;1271;73220;-73
2022/07/25 11:45:20;;;;;;;7.90;2.80;;;;;;;33.84;26.31;99628.79;105051;1271;68844;-74
2022/07/25 11:48:12;;;;;;;8.80;3.40;;;;;;;33.24;27.19;99622.13;105065;1272;74701;-73
2022/07/25 11:51:17;;;;;;;8.60;3.00;;;;;;;32.88;27.97;99609.00;105101;1271;59666;-75
2022/07/25 11:54:10;;;;;;;8.30;3.60;;;;;;;32.43;28.27;99610.84;105266;1271;60033;-76
2022/07/25 11:56:58;;;;;;;8.70;3.30;;;;;;;31.71;29.26;99605.14;104927;1273;74328;-77
2022/07/25 11:59:46;;;;;;;7.70;3.40;;;;;;;31.16;29.99;99609.03;105147;1271;68399;-71
2022/07/25 12:02:35;;;;;;;7.10;3.30;;;;;;;30.64;30.97;99620.80;105136;1271;72964;-72
2022/07/25 12:05:32;;;;;;;8.40;3.70;;;;;;;30.10;31.73;99616.64;106496;1271;59678;-74
2022/07/25 12:08:24;;;;;;;9.80;3.30;;;;;;;29.78;32.39;99609.83;106079;1271;60517;-71
2022/07/25 12:11:21;;;;;;;10.10;3.30;;;;;;;29.64;32.98;99607.96;106246;1271;72363;-73
2022/07/25 12:14:10;;;;;;;8.50;3.10;;;;;;;29.39;33.22;99608.65;105943;1271;69552;-73
2022/07/25 12:16:57;;;;;;;7.90;3.60;;;;;;;29.33;33.67;99599.38;105090;1273;73865;-75
2022/07/25 12:19:48;;;;;;;7.80;3.30;;;;;;;29.23;33.71;99602.64;105223;1271;59862;-76
2022/07/25 12:22:35;;;;;;;9.40;3.40;;;;;;;29.16;33.65;99591.73;105170;1271;59687;-75
2022/07/25 12:25:23;;;;;;;7.50;3.30;;;;;;;29.17;33.96;99586.82;105157;1271;73772;-75
2022/07/25 12:28:18;;;;;;;9.10;3.70;;;;;;;29.10;34.27;99583.38;105078;1272;68331;-73
2022/07/25 12:31:07;;;;;;;9.10;3.30;;;;;;;29.03;34.49;99569.64;105111;1271;74418;-74
2022/07/25 12:33:55;;;;;;;14.70;3.90;;;;;;;29.16;34.71;99564.94;105117;1271;59758;-74
2022/07/25 12:36:43;;;;;;;8.40;3.70;;;;;;;29.23;34.34;99563.57;105287;1272;60358;-74
2022/07/25 12:39:32;;;;;;;7.50;3.00;;;;;;;29.12;34.33;99563.52;105081;1271;74549;-73
2022/07/25 12:42:20;;;;;;;8.80;3.20;;;;;;;29.12;34.29;99561.83;104914;1273;66838;-74
2022/07/25 12:45:09;;;;;;;7.50;3.20;;;;;;;29.01;34.54;99555.50;104969;1273;72038;-75
2022/07/25 12:47:57;;;;;;;6.90;2.80;;;;;;;28.84;34.52;99555.86;105153;1271;59692;-76
2022/07/25 12:50:45;;;;;;;7.30;2.90;;;;;;;28.74;34.90;99559.23;105391;1271;62064;-76
2022/07/25 12:53:33;;;;;;;6.80;3.10;;;;;;;28.69;35.33;99553.45;105120;1271;73266;-75
2022/07/25 12:56:26;;;;;;;8.30;3.40;;;;;;;28.79;35.15;99551.75;105102;1271;66924;-75
2022/07/25 12:59:15;;;;;;;8.30;3.10;;;;;;;28.98;35.13;99546.30;105197;1271;74421;-76
2022/07/25 13:02:04;;;;;;;8.20;3.50;;;;;;;29.06;34.63;99542.19;105117;1271;59715;-75
2022/07/25 13:04:52;;;;;;;7.90;3.30;;;;;;;29.06;34.70;99538.27;105060;1273;61153;-74
2022/07/25 13:07:40;;;;;;;8.50;3.40;;;;;;;29.18;34.78;99538.46;105073;1271;74863;-76
2022/07/25 13:10:27;;;;;;;8.00;3.00;;;;;;;29.08;34.56;99540.52;105343;1271;69598;-76